createdAt,value
2022-09-23T00:01:20.580Z,6.10
2022-09-23T00:03:49.098Z,5.90
2022-09-23T00:06:19.748Z,6.50
2022-09-23T00:08:49.564Z,6.70
2022-09-23T00:11:20.235Z,6.80
2022-09-23T00:13:49.680Z,7.28
2022-09-23T00:16:21.004Z,6.47
2022-09-23T00:18:50.288Z,6.57
2022-09-23T00:21:19.536Z,5.80
2022-09-23T00:23:48.173Z,7.18
2022-09-23T00:26:17.296Z,7.05
2022-09-23T00:28:44.997Z,6.20
2022-09-23T00:31:21.695Z,6.60
2022-09-23T00:34:02.124Z,8.13
2022-09-23T00:36:32.299Z,7.95
2022-09-23T00:39:00.151Z,6.70
2022-09-23T00:41:27.975Z,7.28
2022-09-23T00:43:58.618Z,6.10
2022-09-23T00:46:41.866Z,6.68
2022-09-23T00:49:22.561Z,6.20
2022-09-23T00:51:55.774Z,5.80
2022-09-23T00:54:27.308Z,6.53
2022-09-23T00:56:56.315Z,6.32
2022-09-23T00:59:26.065Z,7.13
2022-09-23T01:01:55.854Z,6.85
2022-09-23T01:04:25.246Z,6.05
2022-09-23T01:06:53.236Z,7.78
2022-09-23T01:09:22.264Z,6.72
2022-09-23T01:12:27.943Z,8.13
2022-09-23T01:15:13.585Z,8.30
2022-09-23T01:18:04.213Z,6.55
2022-09-23T01:20:41.941Z,6.32
2022-09-23T01:23:40.363Z,8.65
2022-09-23T01:26:32.529Z,7.53
2022-09-23T01:29:33.361Z,8.02
2022-09-23T01:32:15.022Z,7.95
2022-09-23T01:34:53.558Z,8.05
2022-09-23T01:37:50.997Z,7.55
2022-09-23T01:40:26.296Z,7.40
2022-09-23T01:42:58.836Z,8.48
2022-09-23T01:45:36.100Z,8.50
2022-09-23T01:48:14.854Z,5.75
2022-09-23T01:51:12.503Z,7.82
2022-09-23T01:53:58.709Z,9.00
2022-09-23T01:56:31.432Z,6.90
2022-09-23T01:59:09.365Z,9.23
2022-09-23T02:01:44.738Z,6.57
2022-09-23T02:04:22.785Z,7.85
2022-09-23T02:06:58.249Z,7.10
2022-09-23T02:09:32.934Z,8.55
2022-09-23T02:12:05.757Z,8.20
2022-09-23T02:14:42.749Z,8.07
2022-09-23T02:17:17.031Z,6.70
2022-09-23T02:19:53.949Z,7.88
2022-09-23T02:22:28.478Z,7.32
2022-09-23T02:24:57.711Z,7.53
2022-09-23T02:27:39.080Z,7.57
2022-09-23T02:30:13.409Z,8.02
2022-09-23T02:32:53.444Z,8.50
2022-09-23T02:35:35.385Z,6.85
2022-09-23T02:38:25.930Z,7.60
2022-09-23T02:41:32.637Z,9.15
2022-09-23T02:44:04.846Z,7.85
2022-09-23T02:46:32.779Z,7.00
2022-09-23T02:49:11.243Z,7.90
2022-09-23T02:51:39.746Z,8.40
2022-09-23T02:54:10.673Z,9.05
2022-09-23T02:56:40.046Z,8.52
2022-09-23T02:59:08.944Z,7.00
2022-09-23T03:02:01.856Z,7.13
2022-09-23T03:04:51.206Z,8.52
2022-09-23T03:07:44.054Z,7.97
2022-09-23T03:10:40.128Z,7.15
2022-09-23T03:13:19.444Z,8.02
2022-09-23T03:15:56.201Z,9.20
2022-09-23T03:18:48.641Z,8.73
2022-09-23T03:21:30.517Z,7.65
2022-09-23T03:24:02.737Z,8.00
2022-09-23T03:26:40.784Z,8.35
2022-09-23T03:29:11.216Z,7.50
2022-09-23T03:31:41.293Z,9.90
2022-09-23T03:34:23.706Z,7.53
2022-09-23T03:37:07.846Z,8.57
2022-09-23T03:40:01.253Z,6.88
2022-09-23T03:42:31.417Z,8.13
2022-09-23T03:45:01.303Z,7.47
2022-09-23T03:47:28.912Z,8.68
2022-09-23T03:49:56.759Z,7.80
2022-09-23T03:52:25.333Z,8.13
2022-09-23T03:54:53.462Z,7.28
2022-09-23T03:57:22.087Z,7.65
2022-09-23T03:59:50.564Z,7.22
2022-09-23T04:02:20.245Z,10.10
2022-09-23T04:04:47.734Z,8.75
2022-09-23T04:07:15.210Z,6.82
2022-09-23T04:09:42.910Z,7.60
2022-09-23T04:12:16.041Z,7.82
2022-09-23T04:14:45.193Z,8.30
2022-09-23T04:17:13.310Z,8.00
2022-09-23T04:19:41.472Z,10.35
2022-09-23T04:22:09.664Z,9.32
2022-09-23T04:24:37.288Z,7.32
2022-09-23T04:27:05.970Z,8.43
2022-09-23T04:29:33.525Z,10.95
2022-09-23T04:32:01.097Z,7.68
2022-09-23T04:34:28.534Z,8.07
2022-09-23T04:36:56.041Z,7.07
2022-09-23T04:39:24.201Z,7.65
2022-09-23T04:41:51.570Z,7.55
2022-09-23T04:44:20.098Z,7.40
2022-09-23T04:46:48.112Z,9.43
2022-09-23T04:49:16.586Z,7.28
2022-09-23T04:51:45.516Z,8.07
2022-09-23T04:54:14.991Z,8.15
2022-09-23T04:56:42.640Z,7.65
2022-09-23T04:59:10.535Z,7.32
2022-09-23T05:01:38.301Z,7.22
2022-09-23T05:04:10.076Z,7.40
2022-09-23T05:06:38.214Z,7.38
2022-09-23T05:09:07.802Z,7.57
2022-09-23T05:11:35.509Z,9.30
2022-09-23T05:14:03.220Z,7.80
2022-09-23T05:16:30.755Z,6.82
2022-09-23T05:18:58.348Z,8.25
2022-09-23T05:21:28.842Z,9.20
2022-09-23T05:23:59.034Z,7.78
2022-09-23T05:26:30.102Z,8.90
2022-09-23T05:28:58.510Z,8.27
2022-09-23T05:31:30.459Z,7.28
2022-09-23T05:34:01.438Z,7.22
2022-09-23T05:36:34.257Z,8.68
2022-09-23T05:39:04.173Z,7.43
2022-09-23T05:41:31.569Z,6.53
2022-09-23T05:43:59.792Z,7.40
2022-09-23T05:46:29.761Z,7.93
2022-09-23T05:49:02.085Z,7.75
2022-09-23T05:51:33.217Z,7.13
2022-09-23T05:54:03.902Z,7.68
2022-09-23T05:56:33.058Z,7.82
2022-09-23T05:59:01.828Z,7.38
2022-09-23T06:01:35.271Z,7.03
2022-09-23T06:04:05.083Z,9.02
2022-09-23T06:06:36.364Z,7.88
2022-09-23T06:09:04.845Z,7.13
2022-09-23T06:11:34.167Z,6.97
2022-09-23T06:14:02.508Z,7.00
2022-09-23T06:16:33.585Z,8.20
2022-09-23T06:19:06.135Z,8.13
2022-09-23T06:21:36.550Z,7.53
2022-09-23T06:24:05.157Z,8.88
2022-09-23T06:26:35.019Z,7.45
2022-09-23T06:29:09.933Z,7.65
2022-09-23T06:31:38.282Z,7.20
2022-09-23T06:34:11.904Z,7.97
2022-09-23T06:36:45.000Z,6.55
2022-09-23T06:39:15.383Z,7.80
2022-09-23T06:41:43.994Z,7.35
2022-09-23T06:44:11.470Z,7.30
2022-09-23T06:46:39.142Z,6.53
2022-09-23T06:49:06.761Z,8.05
2022-09-23T06:51:34.415Z,7.35
2022-09-23T06:54:01.975Z,7.07
2022-09-23T06:56:31.492Z,7.50
2022-09-23T06:59:02.209Z,6.88
2022-09-23T07:01:29.914Z,6.63
2022-09-23T07:03:57.489Z,8.23
2022-09-23T07:06:24.855Z,8.15
2022-09-23T07:08:52.792Z,7.63
2022-09-23T07:11:22.399Z,7.82
2022-09-23T07:13:50.008Z,6.40
2022-09-23T07:16:17.590Z,7.75
2022-09-23T07:18:45.645Z,6.63
2022-09-23T07:21:18.112Z,7.22
2022-09-23T07:23:50.337Z,6.95
2022-09-23T07:26:19.180Z,6.60
2022-09-23T07:28:46.713Z,6.60
2022-09-23T07:31:24.609Z,7.35
2022-09-23T07:33:57.776Z,7.57
2022-09-23T07:36:27.882Z,7.35
2022-09-23T07:39:02.829Z,6.65
2022-09-23T07:41:32.950Z,7.85
2022-09-23T07:44:01.186Z,7.85
2022-09-23T07:46:34.300Z,7.47
2022-09-23T07:49:03.144Z,8.25
2022-09-23T07:51:36.770Z,7.15
2022-09-23T07:54:09.859Z,6.68
2022-09-23T07:56:38.625Z,8.70
2022-09-23T07:59:08.877Z,6.75
2022-09-23T08:01:40.194Z,6.90
2022-09-23T08:04:30.634Z,8.23
2022-09-23T08:07:01.389Z,6.85
2022-09-23T08:09:34.243Z,7.07
2022-09-23T08:12:01.969Z,6.63
2022-09-23T08:14:29.350Z,6.93
2022-09-23T08:16:57.517Z,6.85
2022-09-23T08:19:24.963Z,7.95
2022-09-23T08:21:54.369Z,9.15
2022-09-23T08:24:24.114Z,8.43
2022-09-23T08:26:53.322Z,7.05
2022-09-23T08:29:23.230Z,7.68
2022-09-23T08:31:51.573Z,6.68
2022-09-23T08:34:21.308Z,6.40
2022-09-23T08:36:48.840Z,5.80
2022-09-23T08:39:18.161Z,8.10
2022-09-23T08:41:58.360Z,7.93
2022-09-23T08:44:43.433Z,6.22
2022-09-23T08:47:28.799Z,10.03
2022-09-23T08:50:12.235Z,9.15
2022-09-23T08:52:59.105Z,6.85
2022-09-23T08:55:41.987Z,7.05
2022-09-23T08:58:29.447Z,7.15
2022-09-23T09:01:15.940Z,6.70
2022-09-23T09:03:52.528Z,7.70
2022-09-23T09:06:51.874Z,7.18
2022-09-23T09:09:32.698Z,7.93
2022-09-23T09:12:14.160Z,6.45
2022-09-23T09:15:18.789Z,8.85
2022-09-23T09:17:48.396Z,8.77
2022-09-23T09:20:18.865Z,7.97
2022-09-23T09:23:00.569Z,7.00
2022-09-23T09:25:45.431Z,8.68
2022-09-23T09:28:22.118Z,7.55
2022-09-23T09:30:59.838Z,6.50
2022-09-23T09:33:50.510Z,8.80
2022-09-23T09:36:57.521Z,7.25
2022-09-23T09:39:26.713Z,10.60
2022-09-23T09:41:58.563Z,9.50
2022-09-23T09:44:37.051Z,7.82
2022-09-23T09:47:08.654Z,9.65
2022-09-23T09:49:41.973Z,8.38
2022-09-23T09:52:22.580Z,7.38
2022-09-23T09:54:50.945Z,5.90
2022-09-23T09:57:32.057Z,9.73
2022-09-23T10:00:39.298Z,6.18
2022-09-23T10:03:13.310Z,6.03
2022-09-23T10:05:43.922Z,9.05
2022-09-23T10:08:37.989Z,14.32
2022-09-23T10:11:17.245Z,9.82
2022-09-23T10:14:18.948Z,11.63
2022-09-23T10:17:01.782Z,12.98
2022-09-23T10:19:29.759Z,12.32
2022-09-23T10:22:01.345Z,10.45
2022-09-23T10:24:41.355Z,10.50
2022-09-23T10:27:12.061Z,13.80
2022-09-23T10:29:46.502Z,10.25
2022-09-23T10:32:30.633Z,10.50
2022-09-23T10:35:13.379Z,12.43
2022-09-23T10:37:48.280Z,10.32
2022-09-23T10:40:48.296Z,9.55
2022-09-23T10:43:50.791Z,9.52
2022-09-23T10:46:44.863Z,10.85
2022-09-23T10:50:07.829Z,9.15
2022-09-23T10:52:57.193Z,10.15
2022-09-23T10:55:50.779Z,8.25
2022-09-23T10:58:30.198Z,10.45
2022-09-23T11:01:28.485Z,9.52
2022-09-23T11:04:39.702Z,8.57
2022-09-23T11:07:25.208Z,11.85
2022-09-23T11:10:35.384Z,9.20
2022-09-23T11:13:44.270Z,8.77
2022-09-23T11:16:23.389Z,9.07
2022-09-23T11:19:21.530Z,10.30
2022-09-23T11:22:10.361Z,9.57
2022-09-23T11:24:53.123Z,7.78
2022-09-23T11:27:39.411Z,9.73
2022-09-23T11:32:57.479Z,10.15
2022-09-23T11:35:31.354Z,7.07
2022-09-23T11:38:07.967Z,5.50
2022-09-23T11:40:41.050Z,7.85
2022-09-23T11:43:23.607Z,7.32
2022-09-23T11:45:58.649Z,7.60
2022-09-23T11:51:20.666Z,7.68
2022-09-23T11:53:55.885Z,6.97
2022-09-23T11:56:35.332Z,7.03
2022-09-23T11:59:39.558Z,6.40
2022-09-23T12:02:20.114Z,6.25
2022-09-23T12:05:23.106Z,6.68
2022-09-23T12:07:57.690Z,6.20
2022-09-23T12:10:40.646Z,6.13
2022-09-23T12:13:20.145Z,5.47
2022-09-23T12:15:56.383Z,5.07
2022-09-23T12:18:35.780Z,5.60
2022-09-23T12:21:51.809Z,6.72
2022-09-23T12:24:47.254Z,7.03
2022-09-23T12:27:39.552Z,4.93
2022-09-23T12:30:14.041Z,4.10
2022-09-23T12:32:43.052Z,6.15
2022-09-23T12:35:45.154Z,4.03
2022-09-23T12:38:25.240Z,4.63
2022-09-23T12:40:54.950Z,5.10
2022-09-23T12:43:34.813Z,4.38
2022-09-23T12:46:25.715Z,4.68
2022-09-23T12:49:02.667Z,5.75
2022-09-23T12:51:35.497Z,5.15
2022-09-23T12:54:05.823Z,4.65
2022-09-23T12:56:36.185Z,7.00
2022-09-23T12:59:13.950Z,6.28
2022-09-23T13:01:42.280Z,4.35
2022-09-23T13:04:53.653Z,5.28
2022-09-23T13:07:30.835Z,4.82
2022-09-23T13:10:11.966Z,5.75
2022-09-23T13:12:43.282Z,4.20
2022-09-23T13:15:33.888Z,4.85
2022-09-23T13:18:49.510Z,4.30
2022-09-23T13:21:39.245Z,4.93
2022-09-23T13:24:13.177Z,5.85
2022-09-23T13:26:50.126Z,3.55
2022-09-23T13:29:27.944Z,4.78
2022-09-23T13:31:57.884Z,6.20
2022-09-23T13:34:31.347Z,5.47
2022-09-23T13:37:22.148Z,3.92
2022-09-23T13:39:51.355Z,4.72
2022-09-23T13:42:27.090Z,4.18
2022-09-23T13:45:00.430Z,4.78
2022-09-23T13:47:30.379Z,5.25
2022-09-23T13:49:58.018Z,4.38
2022-09-23T13:52:29.873Z,5.03
2022-09-23T13:54:57.603Z,4.00
2022-09-23T13:57:30.646Z,3.25
2022-09-23T14:00:03.173Z,3.70
2022-09-23T14:02:30.516Z,3.35
2022-09-23T14:04:58.841Z,4.00
2022-09-23T14:07:26.779Z,3.75
2022-09-23T14:09:55.672Z,3.78
2022-09-23T14:12:23.492Z,3.03
2022-09-23T14:14:52.386Z,4.78
2022-09-23T14:17:23.085Z,4.15
2022-09-23T14:19:51.274Z,4.28
2022-09-23T14:22:30.037Z,3.65
2022-09-23T14:24:58.482Z,3.55
2022-09-23T14:27:33.861Z,4.25
2022-09-23T14:30:03.704Z,4.03
2022-09-23T14:32:32.833Z,5.53
2022-09-23T14:35:00.796Z,5.50
2022-09-23T14:38:07.559Z,4.75
2022-09-23T14:41:18.261Z,3.65
2022-09-23T14:43:50.941Z,3.28
2022-09-23T14:46:20.373Z,2.97
2022-09-23T14:48:59.395Z,3.17
2022-09-23T14:51:42.883Z,4.10
2022-09-23T14:54:36.072Z,3.55
2022-09-23T14:57:25.058Z,3.45
2022-09-23T14:59:54.250Z,3.33
2022-09-23T15:02:44.903Z,3.03
2022-09-23T15:05:20.381Z,2.80
2022-09-23T15:07:50.671Z,2.90
2022-09-23T15:10:31.913Z,4.05
2022-09-23T15:13:12.036Z,3.38
2022-09-23T15:15:42.130Z,3.15
2022-09-23T15:18:18.699Z,3.65
2022-09-23T15:20:52.677Z,4.55
2022-09-23T15:23:46.898Z,3.30
2022-09-23T15:26:18.447Z,3.80
2022-09-23T15:28:48.190Z,3.50
2022-09-23T15:31:17.747Z,2.78
2022-09-23T15:33:47.669Z,3.65
2022-09-23T15:36:19.675Z,3.42
2022-09-23T15:38:48.598Z,2.63
2022-09-23T15:41:17.291Z,2.65
2022-09-23T15:43:46.495Z,3.83
2022-09-23T15:46:19.278Z,2.67
2022-09-23T15:48:58.611Z,2.92
2022-09-23T15:51:27.721Z,4.07
2022-09-23T15:53:56.346Z,2.92
2022-09-23T15:56:24.726Z,3.45
2022-09-23T15:58:52.110Z,2.97
2022-09-23T16:01:30.138Z,3.63
2022-09-23T16:04:01.226Z,2.78
2022-09-23T16:06:28.915Z,3.83
2022-09-23T16:08:56.735Z,4.00
2022-09-23T16:11:29.784Z,2.58
2022-09-23T16:13:58.148Z,2.83
2022-09-23T16:16:27.742Z,4.20
2022-09-23T16:18:55.519Z,3.10
2022-09-23T16:21:28.022Z,3.10
2022-09-23T16:23:57.190Z,3.53
2022-09-23T16:26:31.102Z,2.67
2022-09-23T16:28:59.661Z,3.60
2022-09-23T16:31:30.064Z,3.15
2022-09-23T16:34:02.262Z,3.80
2022-09-23T16:36:32.562Z,3.10
2022-09-23T16:39:03.797Z,4.38
2022-09-23T16:41:32.427Z,3.25
2022-09-23T16:44:02.119Z,4.13
2022-09-23T16:46:31.285Z,3.22
2022-09-23T16:48:59.415Z,2.75
2022-09-23T16:51:29.164Z,2.45
2022-09-23T16:53:58.485Z,3.67
2022-09-23T16:56:29.258Z,3.03
2022-09-23T16:58:57.190Z,3.58
2022-09-23T17:01:45.541Z,3.25
2022-09-23T17:04:16.124Z,3.08
2022-09-23T17:06:50.597Z,3.80
2022-09-23T17:09:19.982Z,3.28
2022-09-23T17:11:55.228Z,4.15
2022-09-23T17:14:22.775Z,2.92
2022-09-23T17:16:50.371Z,4.50
2022-09-23T17:19:17.759Z,3.53
2022-09-23T17:21:45.327Z,4.38
2022-09-23T17:24:12.775Z,6.25
2022-09-23T17:26:40.277Z,4.93
2022-09-23T17:29:10.036Z,5.43
2022-09-23T17:31:37.476Z,3.95
2022-09-23T17:34:04.815Z,4.55
2022-09-23T17:36:32.387Z,4.97
2022-09-23T17:38:59.738Z,3.13
2022-09-23T17:41:27.422Z,4.18
2022-09-23T17:43:57.094Z,6.53
2022-09-23T17:46:24.593Z,4.82
2022-09-23T17:48:55.597Z,4.05
2022-09-23T17:51:24.303Z,3.85
2022-09-23T17:53:51.622Z,3.83
2022-09-23T17:56:21.420Z,5.47
2022-09-23T17:58:50.443Z,5.90
2022-09-23T18:01:23.667Z,3.78
2022-09-23T18:03:56.587Z,4.78
2022-09-23T18:06:26.011Z,5.57
2022-09-23T18:08:53.758Z,4.07
2022-09-23T18:11:24.034Z,4.18
2022-09-23T18:13:56.805Z,3.78
2022-09-23T18:16:27.209Z,4.25
2022-09-23T18:18:59.108Z,5.15
2022-09-23T18:21:30.748Z,6.57
2022-09-23T18:24:15.648Z,3.33
2022-09-23T18:26:47.457Z,4.13
2022-09-23T18:29:15.979Z,6.90
2022-09-23T18:31:44.960Z,4.50
2022-09-23T18:34:16.765Z,4.15
2022-09-23T18:36:44.616Z,7.30
2022-09-23T18:39:12.513Z,5.65
2022-09-23T18:41:41.157Z,6.65
2022-09-23T18:44:09.593Z,6.60
2022-09-23T18:46:37.477Z,5.07
2022-09-23T18:49:24.697Z,3.40
2022-09-23T18:51:55.977Z,4.78
2022-09-23T18:54:27.653Z,3.65
2022-09-23T18:56:55.836Z,5.25
2022-09-23T18:59:25.868Z,6.72
2022-09-23T19:01:56.010Z,4.38
2022-09-23T19:04:25.460Z,16.00
2022-09-23T19:06:54.750Z,10.57
2022-09-23T19:09:22.173Z,7.40
2022-09-23T19:11:52.153Z,6.28
2022-09-23T19:14:20.079Z,8.10
2022-09-23T19:16:51.940Z,9.98
2022-09-23T19:19:19.868Z,7.22
2022-09-23T19:21:47.350Z,7.80
2022-09-23T19:24:20.362Z,5.97
2022-09-23T19:26:48.646Z,4.97
2022-09-23T19:29:21.754Z,5.63
2022-09-23T19:31:50.217Z,7.38
2022-09-23T19:34:21.062Z,7.40
2022-09-23T19:36:49.123Z,8.80
2022-09-23T19:39:21.023Z,5.45
2022-09-23T19:41:49.703Z,5.90
2022-09-23T19:44:19.776Z,5.43
2022-09-23T19:46:53.361Z,5.10
2022-09-23T19:49:24.741Z,6.40
2022-09-23T19:51:55.133Z,6.75
2022-09-23T19:54:24.544Z,6.78
2022-09-23T19:56:52.415Z,6.03
2022-09-23T19:59:20.145Z,7.20
2022-09-23T20:01:48.786Z,5.18
2022-09-23T20:04:16.880Z,6.50
2022-09-23T20:06:46.017Z,6.07
2022-09-23T20:09:13.667Z,5.85
2022-09-23T20:11:44.069Z,6.35
2022-09-23T20:14:12.993Z,6.75
2022-09-23T20:16:40.531Z,5.10
2022-09-23T20:19:09.796Z,5.45
2022-09-23T20:21:37.426Z,6.18
2022-09-23T20:24:06.470Z,6.55
2022-09-23T20:26:54.164Z,6.82
2022-09-23T20:29:22.234Z,5.93
2022-09-23T20:31:49.840Z,6.85
2022-09-23T20:34:19.456Z,6.95
2022-09-23T20:36:46.743Z,6.55
2022-09-23T20:39:14.317Z,5.80
2022-09-23T20:41:42.041Z,7.70
2022-09-23T20:44:14.202Z,6.75
2022-09-23T20:46:48.629Z,7.72
2022-09-23T20:49:17.738Z,8.10
2022-09-23T20:51:47.765Z,7.95
2022-09-23T20:54:17.817Z,9.52
2022-09-23T20:56:47.337Z,8.35
2022-09-23T20:59:17.559Z,7.55
2022-09-23T21:01:45.343Z,8.20
2022-09-23T21:04:13.220Z,8.00
2022-09-23T21:06:41.097Z,9.95
2022-09-23T21:09:08.714Z,7.95
2022-09-23T21:11:36.066Z,9.43
2022-09-23T21:14:03.939Z,8.25
2022-09-23T21:16:31.593Z,11.52
2022-09-23T21:18:59.826Z,7.35
2022-09-23T21:21:27.406Z,7.68
2022-09-23T21:23:58.221Z,7.95
2022-09-23T21:26:32.057Z,11.43
2022-09-23T21:29:00.985Z,9.50
2022-09-23T21:31:33.856Z,8.63
2022-09-23T21:34:11.099Z,9.00
2022-09-23T21:36:42.641Z,9.25
2022-09-23T21:39:11.599Z,8.15
2022-09-23T21:41:39.852Z,9.35
2022-09-23T21:44:08.322Z,11.55
2022-09-23T21:46:36.508Z,9.43
2022-09-23T21:49:04.950Z,8.75
2022-09-23T21:51:40.475Z,10.55
2022-09-23T21:54:15.511Z,10.90
2022-09-23T21:56:44.166Z,8.20
2022-09-23T21:59:11.848Z,8.93
2022-09-23T22:01:43.523Z,10.25
2022-09-23T22:04:17.503Z,12.05
2022-09-23T22:06:46.486Z,11.23
2022-09-23T22:09:16.821Z,10.50
2022-09-23T22:12:03.369Z,8.13
2022-09-23T22:14:32.187Z,9.55
2022-09-23T22:17:03.666Z,10.38
2022-09-23T22:19:35.393Z,11.35
2022-09-23T22:22:12.757Z,10.32
2022-09-23T22:24:41.413Z,12.27
2022-09-23T22:27:10.371Z,10.68
2022-09-23T22:29:56.779Z,13.05
2022-09-23T22:32:40.318Z,11.93
2022-09-23T22:35:13.433Z,10.65
2022-09-23T22:37:41.111Z,12.23
2022-09-23T22:40:13.907Z,11.55
2022-09-23T22:42:42.229Z,11.43
2022-09-23T22:45:11.965Z,10.68
2022-09-23T22:47:40.638Z,10.48
2022-09-23T22:50:09.385Z,13.15
2022-09-23T22:52:37.783Z,11.40
2022-09-23T22:55:08.078Z,10.85
2022-09-23T22:57:36.405Z,11.70
2022-09-23T23:00:07.832Z,11.70
2022-09-23T23:02:35.728Z,11.27
2022-09-23T23:05:03.613Z,12.45
2022-09-23T23:07:32.122Z,12.68
2022-09-23T23:09:59.383Z,11.60
2022-09-23T23:12:26.728Z,11.65
2022-09-23T23:14:54.796Z,10.40
2022-09-23T23:17:22.110Z,10.40
2022-09-23T23:19:50.784Z,12.50
2022-09-23T23:22:18.367Z,10.82
2022-09-23T23:24:45.893Z,10.45
2022-09-23T23:27:13.189Z,11.13
2022-09-23T23:29:40.671Z,9.80
2022-09-23T23:32:09.635Z,11.82
2022-09-23T23:34:37.012Z,11.18
2022-09-23T23:37:04.561Z,11.77
2022-09-23T23:39:33.614Z,10.80
2022-09-23T23:42:01.887Z,10.13
2022-09-23T23:44:32.093Z,12.90
2022-09-23T23:46:59.837Z,11.00
2022-09-23T23:49:28.649Z,13.40
2022-09-23T23:51:56.416Z,12.60
2022-09-23T23:54:23.693Z,12.43
2022-09-23T23:56:51.981Z,10.25
2022-09-23T23:59:20.079Z,11.65
